createdAt,value
2018-07-12T00:02:22.308Z,40.30
2018-07-12T00:04:52.296Z,40.30
2018-07-12T00:07:19.615Z,40.30
2018-07-12T00:09:47.333Z,40.30
2018-07-12T00:12:15.318Z,40.90
2018-07-12T00:14:43.078Z,40.30
2018-07-12T00:17:10.609Z,40.30
2018-07-12T00:19:38.242Z,40.30
2018-07-12T00:22:06.339Z,40.30
2018-07-12T00:24:34.109Z,40.30
2018-07-12T00:27:01.763Z,40.30
2018-07-12T00:31:57.769Z,40.80
2018-07-12T00:34:25.566Z,40.30
2018-07-12T00:36:53.303Z,40.20
2018-07-12T00:39:20.833Z,40.80
2018-07-12T00:41:48.370Z,40.20
2018-07-12T00:46:43.557Z,40.20
2018-07-12T00:49:10.981Z,40.20
2018-07-12T00:51:38.488Z,40.80
2018-07-12T00:54:06.047Z,40.30
2018-07-12T00:56:34.026Z,40.30
2018-07-12T00:59:01.854Z,40.80
2018-07-12T01:01:29.731Z,40.30
2018-07-12T01:03:58.589Z,40.30
2018-07-12T01:06:26.200Z,40.40
2018-07-12T01:08:54.261Z,40.30
2018-07-12T01:11:22.896Z,40.80
2018-07-12T01:13:50.506Z,40.40
2018-07-12T01:16:18.668Z,40.30
2018-07-12T01:18:46.682Z,40.30
2018-07-12T01:21:14.814Z,40.30
2018-07-12T01:23:42.476Z,40.30
2018-07-12T01:26:11.429Z,40.30
2018-07-12T01:28:39.270Z,40.20
2018-07-12T01:31:06.601Z,40.20
2018-07-12T01:33:34.992Z,40.20
2018-07-12T01:36:02.547Z,40.10
2018-07-12T01:38:30.023Z,40.10
2018-07-12T01:40:58.429Z,40.10
2018-07-12T01:43:25.726Z,40.10
2018-07-12T01:45:53.734Z,40.10
2018-07-12T01:48:21.607Z,40.10
2018-07-12T01:50:49.590Z,40.00
2018-07-12T01:53:16.984Z,40.00
2018-07-12T01:55:44.673Z,40.00
2018-07-12T01:58:12.204Z,40.00
2018-07-12T02:00:39.559Z,39.90
2018-07-12T02:03:07.287Z,39.90
2018-07-12T02:05:35.095Z,39.90
2018-07-12T02:08:03.091Z,39.90
2018-07-12T02:10:31.970Z,39.80
2018-07-12T02:12:59.517Z,39.80
2018-07-12T02:15:28.080Z,39.80
2018-07-12T02:17:58.851Z,39.70
2018-07-12T02:20:26.457Z,39.70
2018-07-12T02:22:54.188Z,39.70
2018-07-12T02:25:21.788Z,39.70
2018-07-12T02:27:49.600Z,39.60
2018-07-12T02:32:40.562Z,39.60
2018-07-12T02:35:08.150Z,39.50
2018-07-12T02:37:36.161Z,39.50
2018-07-12T02:40:03.800Z,39.50
2018-07-12T02:42:32.650Z,39.40
2018-07-12T02:45:00.701Z,39.40
2018-07-12T02:47:28.737Z,39.30
2018-07-12T02:49:56.818Z,39.30
2018-07-12T02:52:24.513Z,39.30
2018-07-12T02:54:52.492Z,39.20
2018-07-12T02:57:20.487Z,39.20
2018-07-12T02:59:48.240Z,39.10
2018-07-12T03:02:17.085Z,39.00
2018-07-12T03:04:44.742Z,39.00
2018-07-12T03:07:12.041Z,39.00
2018-07-12T03:09:41.908Z,39.50
2018-07-12T03:12:10.147Z,38.90
2018-07-12T03:14:37.945Z,39.00
2018-07-12T03:17:05.915Z,38.80
2018-07-12T03:19:33.206Z,38.80
2018-07-12T03:22:00.852Z,38.80
2018-07-12T03:24:28.207Z,38.70
2018-07-12T03:26:55.955Z,38.70
2018-07-12T03:29:23.331Z,38.70
2018-07-12T03:31:51.164Z,38.70
2018-07-12T03:34:19.289Z,38.60
2018-07-12T03:36:47.051Z,38.60
2018-07-12T03:39:14.775Z,38.60
2018-07-12T03:41:42.580Z,38.60
2018-07-12T03:44:11.536Z,38.30
2018-07-12T03:46:39.382Z,38.60
2018-07-12T03:49:07.250Z,38.60
2018-07-12T03:51:35.189Z,38.60
2018-07-12T03:54:03.123Z,38.60
2018-07-12T03:56:31.214Z,38.60
2018-07-12T03:58:59.109Z,38.60
2018-07-12T04:01:28.652Z,38.50
2018-07-12T04:03:56.128Z,38.50
2018-07-12T04:06:23.604Z,38.60
2018-07-12T04:08:51.243Z,38.80
2018-07-12T04:11:19.043Z,39.10
2018-07-12T04:13:46.835Z,39.40
2018-07-12T04:16:14.155Z,39.70
2018-07-12T04:18:41.980Z,40.00
2018-07-12T04:21:09.769Z,40.30
2018-07-12T04:23:38.229Z,40.50
2018-07-12T04:26:05.881Z,40.70
2018-07-12T04:28:33.490Z,40.90
2018-07-12T04:31:00.944Z,41.10
2018-07-12T04:33:28.967Z,41.20
2018-07-12T04:35:57.133Z,41.40
2018-07-12T04:38:24.954Z,41.60
2018-07-12T04:40:52.869Z,41.80
2018-07-12T04:43:21.131Z,42.00
2018-07-12T04:45:48.716Z,42.10
2018-07-12T04:48:16.288Z,42.20
2018-07-12T04:53:12.258Z,42.50
2018-07-12T04:55:40.258Z,42.60
2018-07-12T04:58:07.620Z,42.70
2018-07-12T05:00:35.917Z,42.80
2018-07-12T05:03:03.520Z,43.10
2018-07-12T05:05:31.161Z,43.30
2018-07-12T05:10:27.007Z,43.70
2018-07-12T05:12:54.645Z,43.90
2018-07-12T05:15:22.447Z,44.00
2018-07-12T05:17:50.104Z,44.10
2018-07-12T05:20:18.215Z,44.30
2018-07-12T05:22:45.726Z,44.30
2018-07-12T05:25:13.845Z,44.30
2018-07-12T05:27:41.884Z,44.30
2018-07-12T05:30:11.652Z,44.20
2018-07-12T05:32:39.451Z,44.10
2018-07-12T05:35:07.086Z,43.80
2018-07-12T05:37:36.060Z,43.70
2018-07-12T05:40:05.352Z,43.60
2018-07-12T05:42:34.536Z,43.40
2018-07-12T05:45:04.398Z,43.20
2018-07-12T05:47:33.702Z,43.10
2018-07-12T05:50:03.059Z,43.00
2018-07-12T05:52:31.680Z,42.70
2018-07-12T05:55:00.635Z,42.60
2018-07-12T05:57:29.820Z,42.60
2018-07-12T06:00:01.211Z,42.50
2018-07-12T06:05:09.503Z,42.50
2018-07-12T06:07:38.819Z,42.50
2018-07-12T06:10:08.576Z,42.50
2018-07-12T06:15:06.935Z,42.50
2018-07-12T06:17:35.647Z,43.00
2018-07-12T06:20:05.835Z,42.40
2018-07-12T06:22:35.370Z,42.50
2018-07-12T06:25:04.271Z,42.60
2018-07-12T06:27:33.451Z,42.60
2018-07-12T06:30:03.250Z,42.60
2018-07-12T06:32:32.673Z,42.70
2018-07-12T06:37:30.560Z,42.80
2018-07-12T06:39:59.466Z,42.90
2018-07-12T06:42:28.745Z,43.00
2018-07-12T06:44:58.303Z,43.10
2018-07-12T06:47:27.183Z,43.20
2018-07-12T06:49:57.651Z,43.30
2018-07-12T06:52:26.624Z,43.40
2018-07-12T06:54:55.597Z,43.40
2018-07-12T06:57:24.961Z,43.30
2018-07-12T06:59:54.261Z,43.60
2018-07-12T07:02:23.664Z,43.50
2018-07-12T07:04:53.678Z,43.20
2018-07-12T07:09:51.714Z,43.00
2018-07-12T07:12:21.987Z,43.00
2018-07-12T07:14:51.060Z,43.00
2018-07-12T07:17:20.462Z,42.90
2018-07-12T07:19:50.525Z,42.80
2018-07-12T07:22:19.890Z,42.60
2018-07-12T07:24:49.024Z,42.50
2018-07-12T07:27:17.954Z,42.50
2018-07-12T07:29:46.985Z,42.50
2018-07-12T07:32:16.781Z,42.30
2018-07-12T07:34:45.993Z,42.20
2018-07-12T07:37:16.036Z,42.10
2018-07-12T07:39:44.897Z,41.90
2018-07-12T07:42:14.643Z,41.80
2018-07-12T07:44:44.433Z,41.80
2018-07-12T07:47:13.703Z,41.60
2018-07-12T07:49:43.074Z,41.50
2018-07-12T07:52:13.548Z,41.50
2018-07-12T07:54:43.659Z,41.30
2018-07-12T07:57:14.036Z,41.20
2018-07-12T07:59:44.272Z,41.10
2018-07-12T08:02:13.440Z,40.90
2018-07-12T08:04:43.329Z,40.80
2018-07-12T08:07:12.611Z,41.20
2018-07-12T08:09:41.994Z,40.50
2018-07-12T08:12:12.593Z,40.40
2018-07-12T08:14:42.204Z,40.30
2018-07-12T08:17:11.404Z,40.30
2018-07-12T08:22:11.794Z,40.30
2018-07-12T08:27:11.578Z,40.30
2018-07-12T08:29:40.945Z,40.20
2018-07-12T08:32:10.558Z,40.20
2018-07-12T08:34:39.082Z,40.10
2018-07-12T08:37:08.587Z,40.00
2018-07-12T08:39:37.905Z,40.50
2018-07-12T08:42:07.265Z,39.80
2018-07-12T08:44:36.737Z,39.80
2018-07-12T08:47:06.080Z,39.60
2018-07-12T08:49:34.849Z,39.60
2018-07-12T08:52:04.280Z,39.60
2018-07-12T08:54:34.776Z,39.60
2018-07-12T08:57:04.206Z,39.50
2018-07-12T08:59:33.109Z,39.40
2018-07-12T09:02:02.747Z,39.50
2018-07-12T09:04:34.571Z,39.50
2018-07-12T09:07:04.259Z,39.60
2018-07-12T09:09:33.977Z,39.50
2018-07-12T09:12:04.265Z,39.50
2018-07-12T09:14:33.906Z,39.00
2018-07-12T09:17:05.091Z,39.50
2018-07-12T09:19:34.738Z,38.90
2018-07-12T09:22:04.135Z,39.40
2018-07-12T09:24:33.074Z,39.50
2018-07-12T09:27:02.446Z,39.40
2018-07-12T09:29:31.740Z,39.50
2018-07-12T09:32:00.893Z,39.50
2018-07-12T09:34:29.647Z,39.50
2018-07-12T09:36:58.784Z,39.60
2018-07-12T09:39:28.393Z,39.70
2018-07-12T09:41:57.610Z,39.80
2018-07-12T09:45:52.483Z,40.00
2018-07-12T09:48:23.217Z,40.00
2018-07-12T09:50:53.449Z,40.10
2018-07-12T09:53:23.094Z,40.30
2018-07-12T09:55:52.882Z,40.50
2018-07-12T10:01:00.816Z,40.60
2018-07-12T10:03:36.507Z,40.70
2018-07-12T10:06:11.398Z,40.60
2018-07-12T10:08:46.413Z,40.50
2018-07-12T10:11:21.095Z,40.30
2018-07-12T10:13:56.011Z,40.10
2018-07-12T10:16:30.709Z,40.00
2018-07-12T10:18:59.925Z,40.40
2018-07-12T10:21:29.593Z,39.50
2018-07-12T10:23:59.495Z,39.30
2018-07-12T10:26:29.085Z,39.00
2018-07-12T10:28:57.911Z,38.70
2018-07-12T10:31:26.959Z,38.40
2018-07-12T10:33:56.691Z,38.10
2018-07-12T10:36:26.855Z,37.90
2018-07-12T10:38:57.578Z,37.10
2018-07-12T10:41:26.622Z,37.30
2018-07-12T10:43:56.124Z,37.10
2018-07-12T10:46:25.092Z,37.00
2018-07-12T10:48:54.265Z,36.70
2018-07-12T10:51:23.993Z,36.50
2018-07-12T10:53:53.077Z,36.30
2018-07-12T10:56:22.699Z,36.20
2018-07-12T10:58:52.564Z,36.10
2018-07-12T11:01:22.047Z,36.10
2018-07-12T11:03:51.538Z,36.10
2018-07-12T11:06:20.342Z,36.10
2018-07-12T11:08:52.277Z,36.10
2018-07-12T11:11:21.574Z,36.10
2018-07-12T11:13:52.417Z,36.10
2018-07-12T11:16:21.964Z,35.90
2018-07-12T11:18:51.682Z,35.70
2018-07-12T11:21:20.617Z,36.20
2018-07-12T11:23:50.146Z,35.40
2018-07-12T11:26:19.370Z,35.50
2018-07-12T11:28:48.605Z,35.50
2018-07-12T11:31:17.308Z,35.40
2018-07-12T11:33:48.583Z,35.30
2018-07-12T11:36:18.088Z,34.90
2018-07-12T11:38:48.028Z,35.00
2018-07-12T11:41:17.616Z,35.00
2018-07-12T11:43:47.139Z,35.60
2018-07-12T11:46:16.790Z,34.90
2018-07-12T11:48:46.427Z,34.90
2018-07-12T11:51:15.629Z,34.80
2018-07-12T11:53:44.333Z,34.60
2018-07-12T11:56:13.161Z,34.70
2018-07-12T11:58:42.410Z,34.90
2018-07-12T12:01:11.391Z,34.70
2018-07-12T12:03:40.217Z,34.60
2018-07-12T12:06:09.927Z,34.60
2018-07-12T12:08:39.439Z,34.70
2018-07-12T12:11:08.399Z,34.60
2018-07-12T12:13:37.881Z,34.60
2018-07-12T12:16:06.830Z,34.50
2018-07-12T12:18:38.384Z,34.50
2018-07-12T12:21:08.005Z,34.60
2018-07-12T12:23:37.112Z,34.50
2018-07-12T12:26:06.333Z,34.50
2018-07-12T12:28:35.415Z,34.60
2018-07-12T12:31:04.332Z,34.60
2018-07-12T12:33:33.917Z,34.60
2018-07-12T12:36:02.657Z,34.60
2018-07-12T12:38:32.248Z,34.60
2018-07-12T12:41:02.273Z,34.60
2018-07-12T12:43:31.516Z,34.70
2018-07-12T12:46:00.366Z,34.60
2018-07-12T12:48:29.732Z,34.80
2018-07-12T12:50:59.085Z,34.90
2018-07-12T12:53:29.824Z,34.80
2018-07-12T12:55:59.101Z,34.80
2018-07-12T12:58:28.637Z,34.80
2018-07-12T13:03:26.974Z,34.90
2018-07-12T13:05:59.476Z,35.10
2018-07-12T13:08:28.269Z,36.00
2018-07-12T13:10:57.769Z,36.10
2018-07-12T13:13:26.831Z,36.30
2018-07-12T13:15:56.392Z,36.50
2018-07-12T13:18:25.361Z,36.70
2018-07-12T13:20:55.779Z,36.90
2018-07-12T13:23:27.148Z,37.10
2018-07-12T13:25:57.152Z,37.40
2018-07-12T13:28:27.291Z,37.60
2018-07-12T13:30:56.550Z,37.80
2018-07-12T13:33:26.086Z,38.00
2018-07-12T13:35:55.997Z,38.00
2018-07-12T13:40:54.422Z,38.10
2018-07-12T13:43:23.522Z,38.10
2018-07-12T13:45:53.426Z,38.30
2018-07-12T13:50:59.783Z,38.30
2018-07-12T13:53:28.919Z,38.40
2018-07-12T13:55:58.366Z,38.50
2018-07-12T13:58:29.860Z,38.30
2018-07-12T14:03:27.909Z,38.40
2018-07-12T14:05:56.734Z,38.30
2018-07-12T14:08:26.602Z,38.20
2018-07-12T14:10:55.373Z,38.60
2018-07-12T14:13:25.655Z,38.10
2018-07-12T14:15:54.395Z,38.00
2018-07-12T14:18:24.172Z,37.80
2018-07-12T14:20:54.189Z,37.70
2018-07-12T14:23:22.802Z,37.60
2018-07-12T14:25:52.304Z,37.50
2018-07-12T14:28:21.312Z,37.30
2018-07-12T14:30:50.439Z,37.30
2018-07-12T14:33:19.410Z,37.30
2018-07-12T14:35:48.312Z,37.30
2018-07-12T14:38:17.535Z,37.20
2018-07-12T14:40:47.524Z,37.30
2018-07-12T14:43:17.898Z,37.30
2018-07-12T14:45:47.790Z,37.50
2018-07-12T14:50:40.591Z,37.70
2018-07-12T14:53:09.462Z,38.10
2018-07-12T14:58:08.005Z,38.70
2018-07-12T15:00:38.140Z,38.80
2018-07-12T15:03:09.784Z,39.00
2018-07-12T15:05:40.130Z,39.10
2018-07-12T15:08:09.156Z,39.40
2018-07-12T15:10:39.092Z,39.60
2018-07-12T15:13:08.667Z,39.70
2018-07-12T15:15:38.003Z,39.90
2018-07-12T15:18:07.881Z,40.20
2018-07-12T15:20:36.833Z,40.20
2018-07-12T15:23:06.304Z,40.30
2018-07-12T15:25:37.741Z,40.40
2018-07-12T15:28:06.934Z,40.40
2018-07-12T15:30:36.350Z,40.50
2018-07-12T15:33:06.075Z,40.00
2018-07-12T15:35:35.315Z,40.60
2018-07-12T15:38:04.891Z,40.50
2018-07-12T15:40:34.664Z,40.60
2018-07-12T15:43:04.072Z,40.60
2018-07-12T15:48:03.242Z,40.70
2018-07-12T15:50:34.602Z,40.70
2018-07-12T15:53:07.283Z,40.70
2018-07-12T15:55:36.774Z,40.70
2018-07-12T15:58:06.538Z,40.80
2018-07-12T16:00:36.600Z,40.80
2018-07-12T16:03:05.993Z,40.90
2018-07-12T16:05:36.155Z,41.00
2018-07-12T16:08:06.948Z,41.10
2018-07-12T16:10:36.651Z,41.00
2018-07-12T16:13:06.391Z,41.00
2018-07-12T16:15:36.599Z,41.00
2018-07-12T16:18:06.009Z,40.90
2018-07-12T16:20:35.552Z,40.90
2018-07-12T16:23:05.455Z,40.90
2018-07-12T16:28:04.933Z,40.90
2018-07-12T16:30:34.791Z,40.80
2018-07-12T16:33:05.421Z,40.80
2018-07-12T16:35:35.313Z,40.80
2018-07-12T16:38:05.596Z,40.80
2018-07-12T16:40:35.687Z,40.80
2018-07-12T16:43:05.692Z,40.80
2018-07-12T16:45:35.646Z,40.80
2018-07-12T16:48:04.957Z,40.80
2018-07-12T16:50:34.674Z,40.90
2018-07-12T16:53:03.853Z,40.90
2018-07-12T16:55:33.216Z,40.70
2018-07-12T16:58:02.640Z,40.80
2018-07-12T17:03:03.274Z,40.80
2018-07-12T17:05:32.610Z,40.80
2018-07-12T17:08:02.853Z,40.80
2018-07-12T17:10:31.540Z,40.80
2018-07-12T17:13:00.691Z,40.80
2018-07-12T17:15:30.827Z,40.70
2018-07-12T17:18:00.470Z,40.70
2018-07-12T17:20:29.842Z,40.70
2018-07-12T17:22:58.839Z,40.70
2018-07-12T17:25:28.678Z,40.80
2018-07-12T17:27:57.608Z,40.80
2018-07-12T17:30:26.915Z,40.70
2018-07-12T17:32:56.360Z,40.70
2018-07-12T17:35:24.914Z,40.70
2018-07-12T17:37:54.314Z,40.70
2018-07-12T17:40:23.557Z,40.70
2018-07-12T17:42:52.114Z,40.70
2018-07-12T17:45:21.314Z,40.80
2018-07-12T17:50:18.898Z,40.70
2018-07-12T17:52:48.084Z,40.80
2018-07-12T17:55:17.295Z,40.70
2018-07-12T17:57:46.371Z,41.00
2018-07-12T18:00:18.183Z,41.40
2018-07-12T18:02:47.726Z,42.20
2018-07-12T18:05:17.592Z,42.00
2018-07-12T18:07:46.980Z,42.00
2018-07-12T18:10:17.044Z,42.00
2018-07-12T18:12:46.914Z,42.10
2018-07-12T18:15:15.926Z,42.20
2018-07-12T18:17:46.454Z,42.30
2018-07-12T18:20:16.252Z,42.20
2018-07-12T18:22:47.342Z,42.30
2018-07-12T18:25:16.620Z,42.40
2018-07-12T18:27:45.990Z,42.40
2018-07-12T18:30:16.037Z,42.20
2018-07-12T18:32:45.444Z,42.10
2018-07-12T18:37:43.349Z,42.20
2018-07-12T18:40:12.787Z,42.30
2018-07-12T18:42:42.632Z,42.20
2018-07-12T18:45:11.627Z,42.10
2018-07-12T18:47:40.856Z,42.10
2018-07-12T18:50:09.757Z,42.00
2018-07-12T18:52:39.850Z,42.10
2018-07-12T18:55:08.842Z,42.10
2018-07-12T18:57:38.931Z,42.10
2018-07-12T19:00:08.331Z,42.10
2018-07-12T19:02:38.048Z,42.00
2018-07-12T19:05:07.402Z,42.00
2018-07-12T19:07:48.252Z,42.00
2018-07-12T19:10:17.613Z,41.90
2018-07-12T19:15:15.152Z,41.90
2018-07-12T19:17:44.392Z,41.80
2018-07-12T19:20:13.703Z,41.80
2018-07-12T19:22:42.768Z,41.70
2018-07-12T19:27:40.712Z,41.70
2018-07-12T19:30:10.674Z,41.70
2018-07-12T19:32:39.440Z,41.50
2018-07-12T19:35:08.484Z,41.50
2018-07-12T19:37:39.305Z,41.40
2018-07-12T19:40:08.653Z,41.40
2018-07-12T19:42:37.118Z,41.30
2018-07-12T19:45:06.301Z,41.20
2018-07-12T19:47:35.046Z,41.10
2018-07-12T19:50:04.447Z,41.10
2018-07-12T19:52:33.321Z,41.20
2018-07-12T19:55:02.778Z,41.30
2018-07-12T19:57:32.087Z,41.40
2018-07-12T20:00:01.140Z,41.50
2018-07-12T20:02:30.802Z,41.60
2018-07-12T20:05:00.093Z,41.60
2018-07-12T20:07:29.086Z,41.60
2018-07-12T20:09:59.001Z,41.70
2018-07-12T20:12:29.684Z,41.60
2018-07-12T20:14:59.665Z,41.60
2018-07-12T20:17:28.683Z,41.70
2018-07-12T20:19:57.752Z,41.80
2018-07-12T20:22:27.325Z,41.80
2018-07-12T20:24:56.602Z,41.90
2018-07-12T20:27:25.425Z,41.90
2018-07-12T20:29:54.358Z,41.70
2018-07-12T20:32:23.305Z,41.70
2018-07-12T20:34:52.327Z,41.70
2018-07-12T20:39:50.107Z,41.70
2018-07-12T20:42:19.383Z,41.70
2018-07-12T20:44:48.689Z,41.70
2018-07-12T20:47:17.765Z,41.70
2018-07-12T20:49:47.243Z,41.60
2018-07-12T20:52:16.016Z,41.80
2018-07-12T20:54:45.389Z,41.70
2018-07-12T20:57:14.064Z,41.70
2018-07-12T20:59:44.471Z,41.60
2018-07-12T21:02:13.769Z,41.60
2018-07-12T21:04:42.858Z,41.90
2018-07-12T21:07:12.980Z,41.60
2018-07-12T21:09:42.257Z,41.60
2018-07-12T21:12:11.817Z,41.60
2018-07-12T21:14:42.217Z,41.60
2018-07-12T21:17:10.932Z,41.60
2018-07-12T21:19:40.803Z,41.70
2018-07-12T21:22:11.233Z,41.70
2018-07-12T21:24:40.633Z,41.80
2018-07-12T21:27:09.851Z,41.80
2018-07-12T21:29:38.742Z,41.80
2018-07-12T21:32:07.848Z,41.80
2018-07-12T21:34:37.107Z,41.80
2018-07-12T21:37:06.161Z,41.80
2018-07-12T21:39:35.092Z,41.80
2018-07-12T21:42:04.811Z,41.80
2018-07-12T21:44:34.030Z,41.80
2018-07-12T21:47:03.544Z,41.80
2018-07-12T21:52:06.288Z,41.80
2018-07-12T21:54:35.721Z,42.00
2018-07-12T21:57:04.602Z,42.00
2018-07-12T21:59:33.645Z,42.00
2018-07-12T22:02:02.766Z,42.10
